メインページ
METAR-TAF:

METAR-TAF

空港 :

アンマン, ヨルダン

緯度: 31-59N, 経度: 035-59E, 海抜: 767m

現時点の気象観測

当レポートは41分前の09:00(UTC)に作成
北東の風 6kt
気温 16°C
湿度 34%
気圧 1018 hPa
視程: 5000m
煙霧

METAR: OJAM 250900Z 04006KT 5000 HZ NSC 16/00 Q1018 NOSIG

時間: 11:41 (09:41 UTC)

予報

当レポートは5時間6分前の04:35(UTC)に作成
予報は25日の 06時(UTC)から 26日の 12時(UTC)まで有効
北西の風 8kt
視程: 5000m
高度10000ftの雲は散在している
高度20000ftの雲はほとんどない
煙霧

TAF: OJAM 250435Z 2506/2612 31008KT 5000 HZ SCT100 FEW200

4,000以上の空港の気象観測と天気予報(METAR報とTAF報)

利用可能な観測所は地図上に黄色い丸と赤い丸で示す。

丸の上にカーソルを重ねると観測所名を参照できる。

次にクリックすると気象観測と天気予報を参照できる。

マップの切り替え:黒色「×」印の緑ボタンをクリックして拡大、「-」印の緑ボタンをクリックして縮小、緑色の三角印をクリックして隣りの地図に切り替え


METAR-TAF: